sensor_id;sensor_type;location;lat;lon;timestamp;temperature;humidity
48836;DHT22;62581;47.342;7.908;2023-07-02T00:01:34;18.40;99.90
48836;DHT22;62581;47.342;7.908;2023-07-02T00:04:01;18.30;99.90
48836;DHT22;62581;47.342;7.908;2023-07-02T00:06:28;18.30;99.90
48836;DHT22;62581;47.342;7.908;2023-07-02T00:08:57;18.30;99.90
48836;DHT22;62581;47.342;7.908;2023-07-02T00:11:24;18.20;99.90
48836;DHT22;62581;47.342;7.908;2023-07-02T00:13:52;18.20;99.90
48836;DHT22;62581;47.342;7.908;2023-07-02T00:16:19;18.20;99.90
48836;DHT22;62581;47.342;7.908;2023-07-02T00:18:46;18.10;99.90
48836;DHT22;62581;47.342;7.908;2023-07-02T00:21:17;18.20;99.90
48836;DHT22;62581;47.342;7.908;2023-07-02T00:23:44;18.20;99.90
48836;DHT22;62581;47.342;7.908;2023-07-02T00:26:11;18.20;99.90
48836;DHT22;62581;47.342;7.908;2023-07-02T00:28:38;18.20;99.90
48836;DHT22;62581;47.342;7.908;2023-07-02T00:31:06;18.30;99.90
48836;DHT22;62581;47.342;7.908;2023-07-02T00:33:33;18.30;99.90
48836;DHT22;62581;47.342;7.908;2023-07-02T00:36:00;18.20;99.90
48836;DHT22;62581;47.342;7.908;2023-07-02T00:38:27;18.20;99.90
48836;DHT22;62581;47.342;7.908;2023-07-02T00:40:54;18.20;99.90
48836;DHT22;62581;47.342;7.908;2023-07-02T00:43:20;18.30;99.90
48836;DHT22;62581;47.342;7.908;2023-07-02T00:45:47;18.30;99.90
48836;DHT22;62581;47.342;7.908;2023-07-02T00:48:15;18.30;99.90
48836;DHT22;62581;47.342;7.908;2023-07-02T00:50:42;18.30;99.90
48836;DHT22;62581;47.342;7.908;2023-07-02T00:53:09;18.30;99.90
48836;DHT22;62581;47.342;7.908;2023-07-02T00:55:35;18.30;99.90
48836;DHT22;62581;47.342;7.908;2023-07-02T00:58:02;18.30;99.90
48836;DHT22;62581;47.342;7.908;2023-07-02T01:00:29;18.30;99.90
48836;DHT22;62581;47.342;7.908;2023-07-02T01:02:56;18.30;99.90
48836;DHT22;62581;47.342;7.908;2023-07-02T01:05:26;18.40;99.90
48836;DHT22;62581;47.342;7.908;2023-07-02T01:08:01;18.40;99.90
48836;DHT22;62581;47.342;7.908;2023-07-02T01:10:27;18.40;99.90
48836;DHT22;62581;47.342;7.908;2023-07-02T01:12:56;18.30;99.90
48836;DHT22;62581;47.342;7.908;2023-07-02T01:15:24;18.30;99.90
48836;DHT22;62581;47.342;7.908;2023-07-02T01:17:51;18.30;99.90
48836;DHT22;62581;47.342;7.908;2023-07-02T01:20:19;18.30;99.90
48836;DHT22;62581;47.342;7.908;2023-07-02T01:22:47;18.20;99.90
48836;DHT22;62581;47.342;7.908;2023-07-02T01:25:16;18.20;99.90
48836;DHT22;62581;47.342;7.908;2023-07-02T01:27:43;18.20;99.90
48836;DHT22;62581;47.342;7.908;2023-07-02T01:30:10;18.20;99.90
48836;DHT22;62581;47.342;7.908;2023-07-02T01:32:37;18.20;99.90
48836;DHT22;62581;47.342;7.908;2023-07-02T01:35:04;18.20;99.90
48836;DHT22;62581;47.342;7.908;2023-07-02T01:37:33;18.10;99.90
48836;DHT22;62581;47.342;7.908;2023-07-02T01:40:02;18.10;99.90
48836;DHT22;62581;47.342;7.908;2023-07-02T01:42:31;18.10;99.90
48836;DHT22;62581;47.342;7.908;2023-07-02T01:44:58;18.10;99.90
48836;DHT22;62581;47.342;7.908;2023-07-02T01:47:25;18.10;99.90
48836;DHT22;62581;47.342;7.908;2023-07-02T01:49:51;18.10;99.90
48836;DHT22;62581;47.342;7.908;2023-07-02T01:52:18;18.10;99.90
48836;DHT22;62581;47.342;7.908;2023-07-02T01:54:46;18.10;99.90
48836;DHT22;62581;47.342;7.908;2023-07-02T01:57:13;18.00;99.90
48836;DHT22;62581;47.342;7.908;2023-07-02T01:59:40;18.00;99.90
48836;DHT22;62581;47.342;7.908;2023-07-02T02:02:06;18.00;99.90
48836;DHT22;62581;47.342;7.908;2023-07-02T02:04:33;18.00;99.90
48836;DHT22;62581;47.342;7.908;2023-07-02T02:07:00;18.00;99.90
48836;DHT22;62581;47.342;7.908;2023-07-02T02:09:27;18.00;99.90
48836;DHT22;62581;47.342;7.908;2023-07-02T02:11:57;18.00;99.90
48836;DHT22;62581;47.342;7.908;2023-07-02T02:14:23;18.00;99.90
48836;DHT22;62581;47.342;7.908;2023-07-02T02:16:50;18.10;99.90
48836;DHT22;62581;47.342;7.908;2023-07-02T02:19:17;18.10;99.90
48836;DHT22;62581;47.342;7.908;2023-07-02T02:21:44;18.00;99.90
48836;DHT22;62581;47.342;7.908;2023-07-02T02:24:10;18.00;99.90
48836;DHT22;62581;47.342;7.908;2023-07-02T02:26:37;18.00;99.90
48836;DHT22;62581;47.342;7.908;2023-07-02T02:29:05;18.00;99.90
48836;DHT22;62581;47.342;7.908;2023-07-02T02:31:32;18.00;99.90
48836;DHT22;62581;47.342;7.908;2023-07-02T02:33:59;18.00;99.90
48836;DHT22;62581;47.342;7.908;2023-07-02T02:36:26;17.90;99.90
48836;DHT22;62581;47.342;7.908;2023-07-02T02:38:52;17.90;99.90
48836;DHT22;62581;47.342;7.908;2023-07-02T02:41:19;17.90;99.90
48836;DHT22;62581;47.342;7.908;2023-07-02T02:43:46;18.00;99.90
48836;DHT22;62581;47.342;7.908;2023-07-02T02:46:19;17.90;99.90
48836;DHT22;62581;47.342;7.908;2023-07-02T02:48:45;17.80;99.90
48836;DHT22;62581;47.342;7.908;2023-07-02T02:51:12;17.80;99.90
48836;DHT22;62581;47.342;7.908;2023-07-02T02:53:39;17.90;99.90
48836;DHT22;62581;47.342;7.908;2023-07-02T02:56:06;17.80;99.90
48836;DHT22;62581;47.342;7.908;2023-07-02T02:58:32;17.90;99.90
48836;DHT22;62581;47.342;7.908;2023-07-02T03:00:59;17.90;99.90
48836;DHT22;62581;47.342;7.908;2023-07-02T03:03:27;17.90;99.90
48836;DHT22;62581;47.342;7.908;2023-07-02T03:05:54;17.90;99.90
48836;DHT22;62581;47.342;7.908;2023-07-02T03:08:21;17.90;99.90
48836;DHT22;62581;47.342;7.908;2023-07-02T03:10:47;17.90;99.90
48836;DHT22;62581;47.342;7.908;2023-07-02T03:13:14;17.90;99.90
48836;DHT22;62581;47.342;7.908;2023-07-02T03:15:41;17.90;99.90
48836;DHT22;62581;47.342;7.908;2023-07-02T03:18:08;17.90;99.90
48836;DHT22;62581;47.342;7.908;2023-07-02T03:20:36;17.90;99.90
48836;DHT22;62581;47.342;7.908;2023-07-02T03:23:02;18.00;99.90
48836;DHT22;62581;47.342;7.908;2023-07-02T03:25:29;18.00;99.90
48836;DHT22;62581;47.342;7.908;2023-07-02T03:27:56;17.90;99.90
48836;DHT22;62581;47.342;7.908;2023-07-02T03:30:23;18.10;99.90
48836;DHT22;62581;47.342;7.908;2023-07-02T03:32:50;18.10;99.90
48836;DHT22;62581;47.342;7.908;2023-07-02T03:35:16;18.10;99.90
48836;DHT22;62581;47.342;7.908;2023-07-02T03:37:44;18.10;99.90
48836;DHT22;62581;47.342;7.908;2023-07-02T03:40:11;18.00;99.90
48836;DHT22;62581;47.342;7.908;2023-07-02T03:42:38;18.10;99.90
48836;DHT22;62581;47.342;7.908;2023-07-02T03:45:05;18.10;99.90
48836;DHT22;62581;47.342;7.908;2023-07-02T03:47:32;18.10;99.90
48836;DHT22;62581;47.342;7.908;2023-07-02T03:49:59;18.10;99.90
48836;DHT22;62581;47.342;7.908;2023-07-02T03:52:26;18.10;99.90
48836;DHT22;62581;47.342;7.908;2023-07-02T03:54:54;18.10;99.90
48836;DHT22;62581;47.342;7.908;2023-07-02T03:57:20;18.10;99.90
48836;DHT22;62581;47.342;7.908;2023-07-02T03:59:47;18.10;99.90
48836;DHT22;62581;47.342;7.908;2023-07-02T04:02:14;18.10;99.90
48836;DHT22;62581;47.342;7.908;2023-07-02T04:04:40;18.10;99.90
48836;DHT22;62581;47.342;7.908;2023-07-02T04:07:07;18.00;99.90
48836;DHT22;62581;47.342;7.908;2023-07-02T04:09:34;18.10;99.90
48836;DHT22;62581;47.342;7.908;2023-07-02T04:12:02;18.10;99.90
48836;DHT22;62581;47.342;7.908;2023-07-02T04:14:29;18.10;99.90
48836;DHT22;62581;47.342;7.908;2023-07-02T04:16:55;18.10;99.90
48836;DHT22;62581;47.342;7.908;2023-07-02T04:19:22;18.10;99.90
48836;DHT22;62581;47.342;7.908;2023-07-02T04:21:49;18.10;99.90
48836;DHT22;62581;47.342;7.908;2023-07-02T04:24:16;18.20;99.90
48836;DHT22;62581;47.342;7.908;2023-07-02T04:26:42;18.10;99.90
48836;DHT22;62581;47.342;7.908;2023-07-02T04:29:11;18.20;99.90
48836;DHT22;62581;47.342;7.908;2023-07-02T04:31:38;18.10;99.90
48836;DHT22;62581;47.342;7.908;2023-07-02T04:34:04;18.10;99.90
48836;DHT22;62581;47.342;7.908;2023-07-02T04:36:32;18.10;99.90
48836;DHT22;62581;47.342;7.908;2023-07-02T04:38:58;18.10;99.90
48836;DHT22;62581;47.342;7.908;2023-07-02T04:41:26;18.20;99.90
48836;DHT22;62581;47.342;7.908;2023-07-02T04:43:52;18.20;99.90
48836;DHT22;62581;47.342;7.908;2023-07-02T04:46:20;18.20;99.90
48836;DHT22;62581;47.342;7.908;2023-07-02T04:48:47;18.30;99.90
48836;DHT22;62581;47.342;7.908;2023-07-02T04:51:14;18.40;99.90
48836;DHT22;62581;47.342;7.908;2023-07-02T04:53:41;18.40;99.90
48836;DHT22;62581;47.342;7.908;2023-07-02T04:56:07;18.40;99.90
48836;DHT22;62581;47.342;7.908;2023-07-02T04:58:34;18.40;99.90
48836;DHT22;62581;47.342;7.908;2023-07-02T05:01:01;18.30;99.90
48836;DHT22;62581;47.342;7.908;2023-07-02T05:03:29;18.40;99.90
48836;DHT22;62581;47.342;7.908;2023-07-02T05:05:56;18.40;99.90
48836;DHT22;62581;47.342;7.908;2023-07-02T05:08:22;18.40;99.90
48836;DHT22;62581;47.342;7.908;2023-07-02T05:10:49;18.40;99.90
48836;DHT22;62581;47.342;7.908;2023-07-02T05:13:16;18.40;99.90
48836;DHT22;62581;47.342;7.908;2023-07-02T05:15:42;18.30;99.90
48836;DHT22;62581;47.342;7.908;2023-07-02T05:18:09;18.40;99.90
48836;DHT22;62581;47.342;7.908;2023-07-02T05:20:38;18.40;99.90
48836;DHT22;62581;47.342;7.908;2023-07-02T05:23:05;18.40;99.90
48836;DHT22;62581;47.342;7.908;2023-07-02T05:25:31;18.40;99.90
48836;DHT22;62581;47.342;7.908;2023-07-02T05:27:59;18.40;99.90
48836;DHT22;62581;47.342;7.908;2023-07-02T05:30:25;18.30;99.90
48836;DHT22;62581;47.342;7.908;2023-07-02T05:32:52;18.30;99.90
48836;DHT22;62581;47.342;7.908;2023-07-02T05:35:19;18.40;99.90
48836;DHT22;62581;47.342;7.908;2023-07-02T05:37:47;18.40;99.90
48836;DHT22;62581;47.342;7.908;2023-07-02T05:40:14;18.40;99.90
48836;DHT22;62581;47.342;7.908;2023-07-02T05:42:41;18.30;99.90
48836;DHT22;62581;47.342;7.908;2023-07-02T05:45:09;18.30;99.90
48836;DHT22;62581;47.342;7.908;2023-07-02T05:47:36;18.30;99.90
48836;DHT22;62581;47.342;7.908;2023-07-02T05:50:03;18.20;99.90
48836;DHT22;62581;47.342;7.908;2023-07-02T05:52:30;18.00;99.90
48836;DHT22;62581;47.342;7.908;2023-07-02T05:54:58;18.00;99.90
48836;DHT22;62581;47.342;7.908;2023-07-02T05:57:25;18.10;99.90
48836;DHT22;62581;47.342;7.908;2023-07-02T05:59:52;18.10;99.90
48836;DHT22;62581;47.342;7.908;2023-07-02T06:02:18;18.10;99.90
48836;DHT22;62581;47.342;7.908;2023-07-02T06:04:45;18.20;99.90
48836;DHT22;62581;47.342;7.908;2023-07-02T06:07:12;18.20;99.90
48836;DHT22;62581;47.342;7.908;2023-07-02T06:09:39;18.20;99.90
48836;DHT22;62581;47.342;7.908;2023-07-02T06:12:07;18.20;99.90
48836;DHT22;62581;47.342;7.908;2023-07-02T06:14:34;18.20;99.90
48836;DHT22;62581;47.342;7.908;2023-07-02T06:17:01;18.20;99.90
48836;DHT22;62581;47.342;7.908;2023-07-02T06:19:31;18.30;99.90
48836;DHT22;62581;47.342;7.908;2023-07-02T06:21:57;18.30;99.90
48836;DHT22;62581;47.342;7.908;2023-07-02T06:24:24;18.30;99.90
48836;DHT22;62581;47.342;7.908;2023-07-02T06:26:51;18.40;99.90
48836;DHT22;62581;47.342;7.908;2023-07-02T06:29:19;18.50;99.90
48836;DHT22;62581;47.342;7.908;2023-07-02T06:31:46;18.50;99.90
48836;DHT22;62581;47.342;7.908;2023-07-02T06:34:12;18.50;99.90
48836;DHT22;62581;47.342;7.908;2023-07-02T06:36:39;18.60;99.90
48836;DHT22;62581;47.342;7.908;2023-07-02T06:39:06;18.70;99.90
48836;DHT22;62581;47.342;7.908;2023-07-02T06:41:34;18.70;99.90
48836;DHT22;62581;47.342;7.908;2023-07-02T06:44:01;18.70;99.90
48836;DHT22;62581;47.342;7.908;2023-07-02T06:46:29;18.80;99.90
48836;DHT22;62581;47.342;7.908;2023-07-02T06:48:56;18.90;99.90
48836;DHT22;62581;47.342;7.908;2023-07-02T06:51:23;19.00;99.90
48836;DHT22;62581;47.342;7.908;2023-07-02T06:53:51;19.10;99.90
48836;DHT22;62581;47.342;7.908;2023-07-02T06:56:18;19.10;99.90
48836;DHT22;62581;47.342;7.908;2023-07-02T06:58:45;19.20;99.90
48836;DHT22;62581;47.342;7.908;2023-07-02T07:01:11;19.20;99.90
48836;DHT22;62581;47.342;7.908;2023-07-02T07:03:39;19.30;99.90
48836;DHT22;62581;47.342;7.908;2023-07-02T07:06:06;19.40;99.90
48836;DHT22;62581;47.342;7.908;2023-07-02T07:08:33;19.50;99.90
48836;DHT22;62581;47.342;7.908;2023-07-02T07:11:03;19.60;99.90
48836;DHT22;62581;47.342;7.908;2023-07-02T07:13:29;19.60;99.90
48836;DHT22;62581;47.342;7.908;2023-07-02T07:15:56;19.60;99.90
48836;DHT22;62581;47.342;7.908;2023-07-02T07:18:23;19.70;99.90
48836;DHT22;62581;47.342;7.908;2023-07-02T07:20:51;19.90;99.90
48836;DHT22;62581;47.342;7.908;2023-07-02T07:23:19;20.20;99.90
48836;DHT22;62581;47.342;7.908;2023-07-02T07:25:45;20.30;99.90
48836;DHT22;62581;47.342;7.908;2023-07-02T07:28:12;20.50;99.90
48836;DHT22;62581;47.342;7.908;2023-07-02T07:30:41;20.60;99.90
48836;DHT22;62581;47.342;7.908;2023-07-02T07:33:07;20.40;99.90
48836;DHT22;62581;47.342;7.908;2023-07-02T07:35:34;20.40;99.90
48836;DHT22;62581;47.342;7.908;2023-07-02T07:38:02;20.70;99.90
48836;DHT22;62581;47.342;7.908;2023-07-02T07:40:29;20.90;99.90
48836;DHT22;62581;47.342;7.908;2023-07-02T07:42:56;21.10;99.90
48836;DHT22;62581;47.342;7.908;2023-07-02T07:45:23;21.30;99.90
48836;DHT22;62581;47.342;7.908;2023-07-02T07:47:49;21.50;99.90
48836;DHT22;62581;47.342;7.908;2023-07-02T07:50:16;21.50;99.90
48836;DHT22;62581;47.342;7.908;2023-07-02T07:52:43;21.60;99.90
48836;DHT22;62581;47.342;7.908;2023-07-02T07:55:11;21.60;99.90
48836;DHT22;62581;47.342;7.908;2023-07-02T07:57:38;21.70;99.90
48836;DHT22;62581;47.342;7.908;2023-07-02T08:00:05;21.60;99.90
48836;DHT22;62581;47.342;7.908;2023-07-02T08:02:34;21.70;99.90
48836;DHT22;62581;47.342;7.908;2023-07-02T08:05:01;21.70;99.90
48836;DHT22;62581;47.342;7.908;2023-07-02T08:07:31;21.60;99.90
48836;DHT22;62581;47.342;7.908;2023-07-02T08:09:58;21.60;99.90
48836;DHT22;62581;47.342;7.908;2023-07-02T08:12:26;21.60;99.90
48836;DHT22;62581;47.342;7.908;2023-07-02T08:14:54;21.40;99.90
48836;DHT22;62581;47.342;7.908;2023-07-02T08:17:21;21.20;99.90
48836;DHT22;62581;47.342;7.908;2023-07-02T08:19:48;21.10;99.90
48836;DHT22;62581;47.342;7.908;2023-07-02T08:22:15;20.90;99.90
48836;DHT22;62581;47.342;7.908;2023-07-02T08:24:41;20.80;99.90
48836;DHT22;62581;47.342;7.908;2023-07-02T08:27:08;20.80;99.90
48836;DHT22;62581;47.342;7.908;2023-07-02T08:29:37;20.80;99.90
48836;DHT22;62581;47.342;7.908;2023-07-02T08:32:04;20.80;99.90
48836;DHT22;62581;47.342;7.908;2023-07-02T08:34:31;20.80;99.90
48836;DHT22;62581;47.342;7.908;2023-07-02T08:36:57;20.70;99.90
48836;DHT22;62581;47.342;7.908;2023-07-02T08:39:24;20.90;99.90
48836;DHT22;62581;47.342;7.908;2023-07-02T08:41:51;21.00;99.90
48836;DHT22;62581;47.342;7.908;2023-07-02T08:44:19;21.20;99.90
48836;DHT22;62581;47.342;7.908;2023-07-02T08:46:47;21.30;99.90
48836;DHT22;62581;47.342;7.908;2023-07-02T08:49:16;21.30;99.90
48836;DHT22;62581;47.342;7.908;2023-07-02T08:51:44;21.40;99.90
48836;DHT22;62581;47.342;7.908;2023-07-02T08:54:11;21.10;99.90
48836;DHT22;62581;47.342;7.908;2023-07-02T08:56:38;21.20;99.90
48836;DHT22;62581;47.342;7.908;2023-07-02T08:59:06;20.90;99.90
48836;DHT22;62581;47.342;7.908;2023-07-02T09:01:33;20.80;99.90
48836;DHT22;62581;47.342;7.908;2023-07-02T09:04:01;20.80;99.90
48836;DHT22;62581;47.342;7.908;2023-07-02T09:06:28;20.80;99.90
48836;DHT22;62581;47.342;7.908;2023-07-02T09:09:03;20.90;99.90
48836;DHT22;62581;47.342;7.908;2023-07-02T09:11:29;21.10;99.90
48836;DHT22;62581;47.342;7.908;2023-07-02T09:13:56;21.20;99.90
48836;DHT22;62581;47.342;7.908;2023-07-02T09:16:26;20.80;99.90
48836;DHT22;62581;47.342;7.908;2023-07-02T09:18:57;20.90;99.90
48836;DHT22;62581;47.342;7.908;2023-07-02T09:21:26;20.80;99.90
48836;DHT22;62581;47.342;7.908;2023-07-02T09:23:54;20.80;99.90
48836;DHT22;62581;47.342;7.908;2023-07-02T09:26:20;20.60;99.90
48836;DHT22;62581;47.342;7.908;2023-07-02T09:28:47;20.20;99.90
48836;DHT22;62581;47.342;7.908;2023-07-02T09:31:14;20.30;99.90
48836;DHT22;62581;47.342;7.908;2023-07-02T09:33:41;20.40;99.90
48836;DHT22;62581;47.342;7.908;2023-07-02T09:36:08;20.50;99.90
48836;DHT22;62581;47.342;7.908;2023-07-02T09:38:36;20.60;99.90
48836;DHT22;62581;47.342;7.908;2023-07-02T09:41:03;20.80;99.90
48836;DHT22;62581;47.342;7.908;2023-07-02T09:43:30;21.20;99.90
48836;DHT22;62581;47.342;7.908;2023-07-02T09:45:57;21.40;99.90
48836;DHT22;62581;47.342;7.908;2023-07-02T09:48:24;21.50;99.90
48836;DHT22;62581;47.342;7.908;2023-07-02T09:50:51;21.70;99.90
48836;DHT22;62581;47.342;7.908;2023-07-02T09:53:19;21.60;99.90
48836;DHT22;62581;47.342;7.908;2023-07-02T09:55:47;21.70;99.90
48836;DHT22;62581;47.342;7.908;2023-07-02T09:58:14;22.00;99.90
48836;DHT22;62581;47.342;7.908;2023-07-02T10:00:41;22.30;99.90
48836;DHT22;62581;47.342;7.908;2023-07-02T10:03:08;22.50;99.90
48836;DHT22;62581;47.342;7.908;2023-07-02T10:05:35;22.50;99.90
48836;DHT22;62581;47.342;7.908;2023-07-02T10:08:11;22.70;99.90
48836;DHT22;62581;47.342;7.908;2023-07-02T10:10:38;22.90;99.90
48836;DHT22;62581;47.342;7.908;2023-07-02T10:13:07;23.30;99.90
48836;DHT22;62581;47.342;7.908;2023-07-02T10:15:33;23.00;99.90
48836;DHT22;62581;47.342;7.908;2023-07-02T10:18:03;23.20;99.90
48836;DHT22;62581;47.342;7.908;2023-07-02T10:20:33;23.30;99.90
48836;DHT22;62581;47.342;7.908;2023-07-02T10:23:00;23.60;99.90
48836;DHT22;62581;47.342;7.908;2023-07-02T10:25:27;23.70;99.90
48836;DHT22;62581;47.342;7.908;2023-07-02T10:27:54;23.60;99.90
48836;DHT22;62581;47.342;7.908;2023-07-02T10:30:31;23.80;99.90
48836;DHT22;62581;47.342;7.908;2023-07-02T10:33:08;24.20;99.90
48836;DHT22;62581;47.342;7.908;2023-07-02T10:35:35;24.50;99.90
48836;DHT22;62581;47.342;7.908;2023-07-02T10:38:02;23.80;99.90
48836;DHT22;62581;47.342;7.908;2023-07-02T10:40:29;23.70;99.90
48836;DHT22;62581;47.342;7.908;2023-07-02T10:42:56;23.90;99.90
48836;DHT22;62581;47.342;7.908;2023-07-02T10:45:32;24.30;99.90
48836;DHT22;62581;47.342;7.908;2023-07-02T10:47:59;24.00;99.90
48836;DHT22;62581;47.342;7.908;2023-07-02T10:50:26;24.30;99.90
48836;DHT22;62581;47.342;7.908;2023-07-02T10:52:53;24.70;99.90
48836;DHT22;62581;47.342;7.908;2023-07-02T10:55:20;24.70;99.90
48836;DHT22;62581;47.342;7.908;2023-07-02T10:57:47;24.70;99.90
48836;DHT22;62581;47.342;7.908;2023-07-02T11:00:16;24.60;99.90
48836;DHT22;62581;47.342;7.908;2023-07-02T11:02:44;24.60;99.90
48836;DHT22;62581;47.342;7.908;2023-07-02T11:05:11;24.70;99.90
48836;DHT22;62581;47.342;7.908;2023-07-02T11:07:39;24.80;99.90
48836;DHT22;62581;47.342;7.908;2023-07-02T11:10:06;24.90;99.90
48836;DHT22;62581;47.342;7.908;2023-07-02T11:12:33;25.10;99.90
48836;DHT22;62581;47.342;7.908;2023-07-02T11:15:09;24.50;99.90
48836;DHT22;62581;47.342;7.908;2023-07-02T11:17:36;24.50;99.90
48836;DHT22;62581;47.342;7.908;2023-07-02T11:20:05;24.40;99.90
48836;DHT22;62581;47.342;7.908;2023-07-02T11:22:32;24.60;99.90
48836;DHT22;62581;47.342;7.908;2023-07-02T11:25:08;24.90;99.90
48836;DHT22;62581;47.342;7.908;2023-07-02T11:27:35;25.50;99.90
48836;DHT22;62581;47.342;7.908;2023-07-02T11:30:02;25.90;99.90
48836;DHT22;62581;47.342;7.908;2023-07-02T11:32:29;26.20;99.90
48836;DHT22;62581;47.342;7.908;2023-07-02T11:34:56;26.50;99.90
48836;DHT22;62581;47.342;7.908;2023-07-02T11:37:24;26.90;99.90
48836;DHT22;62581;47.342;7.908;2023-07-02T11:39:51;27.10;99.90
48836;DHT22;62581;47.342;7.908;2023-07-02T11:42:18;27.10;99.90
48836;DHT22;62581;47.342;7.908;2023-07-02T11:44:47;27.00;99.90
48836;DHT22;62581;47.342;7.908;2023-07-02T11:47:13;26.80;99.90
48836;DHT22;62581;47.342;7.908;2023-07-02T11:49:40;26.80;99.90
48836;DHT22;62581;47.342;7.908;2023-07-02T11:52:07;26.90;99.90
48836;DHT22;62581;47.342;7.908;2023-07-02T11:54:35;27.10;99.90
48836;DHT22;62581;47.342;7.908;2023-07-02T11:57:06;27.20;99.90
48836;DHT22;62581;47.342;7.908;2023-07-02T11:59:34;27.40;99.90
48836;DHT22;62581;47.342;7.908;2023-07-02T12:02:01;27.70;99.90
48836;DHT22;62581;47.342;7.908;2023-07-02T12:04:28;28.00;99.90
48836;DHT22;62581;47.342;7.908;2023-07-02T12:06:55;27.90;99.90
48836;DHT22;62581;47.342;7.908;2023-07-02T12:09:22;27.50;99.90
48836;DHT22;62581;47.342;7.908;2023-07-02T12:11:50;27.10;99.90
48836;DHT22;62581;47.342;7.908;2023-07-02T12:14:17;27.10;99.90
48836;DHT22;62581;47.342;7.908;2023-07-02T12:16:43;27.70;99.90
48836;DHT22;62581;47.342;7.908;2023-07-02T12:19:10;28.10;99.90
48836;DHT22;62581;47.342;7.908;2023-07-02T12:21:37;28.40;99.90
48836;DHT22;62581;47.342;7.908;2023-07-02T12:24:04;28.40;99.90
48836;DHT22;62581;47.342;7.908;2023-07-02T12:26:34;28.40;99.90
48836;DHT22;62581;47.342;7.908;2023-07-02T12:29:02;28.30;99.90
48836;DHT22;62581;47.342;7.908;2023-07-02T12:31:29;28.20;99.90
48836;DHT22;62581;47.342;7.908;2023-07-02T12:33:56;28.20;99.90
48836;DHT22;62581;47.342;7.908;2023-07-02T12:36:23;28.00;99.90
48836;DHT22;62581;47.342;7.908;2023-07-02T12:38:49;27.70;99.70
48836;DHT22;62581;47.342;7.908;2023-07-02T12:41:16;27.50;99.70
48836;DHT22;62581;47.342;7.908;2023-07-02T12:43:43;27.30;99.80
48836;DHT22;62581;47.342;7.908;2023-07-02T12:46:11;27.10;99.90
48836;DHT22;62581;47.342;7.908;2023-07-02T12:48:38;26.80;99.90
48836;DHT22;62581;47.342;7.908;2023-07-02T12:51:04;26.60;99.90
48836;DHT22;62581;47.342;7.908;2023-07-02T12:53:31;26.10;99.90
48836;DHT22;62581;47.342;7.908;2023-07-02T12:55:58;26.00;99.90
48836;DHT22;62581;47.342;7.908;2023-07-02T12:58:24;25.80;99.90
48836;DHT22;62581;47.342;7.908;2023-07-02T13:00:51;25.50;99.90
48836;DHT22;62581;47.342;7.908;2023-07-02T13:03:19;25.30;99.90
48836;DHT22;62581;47.342;7.908;2023-07-02T13:05:48;25.60;99.90
48836;DHT22;62581;47.342;7.908;2023-07-02T13:08:15;26.50;99.90
48836;DHT22;62581;47.342;7.908;2023-07-02T13:10:42;26.50;99.90
48836;DHT22;62581;47.342;7.908;2023-07-02T13:13:09;27.00;99.90
48836;DHT22;62581;47.342;7.908;2023-07-02T13:15:36;28.60;99.90
48836;DHT22;62581;47.342;7.908;2023-07-02T13:18:03;30.10;99.00
48836;DHT22;62581;47.342;7.908;2023-07-02T13:20:31;31.20;96.90
48836;DHT22;62581;47.342;7.908;2023-07-02T13:22:58;31.80;94.70
48836;DHT22;62581;47.342;7.908;2023-07-02T13:25:25;30.90;94.60
48836;DHT22;62581;47.342;7.908;2023-07-02T13:27:52;29.40;95.80
48836;DHT22;62581;47.342;7.908;2023-07-02T13:30:19;28.10;97.20
48836;DHT22;62581;47.342;7.908;2023-07-02T13:32:46;27.30;98.50
48836;DHT22;62581;47.342;7.908;2023-07-02T13:35:12;26.30;99.80
48836;DHT22;62581;47.342;7.908;2023-07-02T13:37:41;25.60;99.90
48836;DHT22;62581;47.342;7.908;2023-07-02T13:40:08;25.30;99.90
48836;DHT22;62581;47.342;7.908;2023-07-02T13:42:38;24.90;99.90
48836;DHT22;62581;47.342;7.908;2023-07-02T13:45:05;24.90;99.90
48836;DHT22;62581;47.342;7.908;2023-07-02T13:47:32;25.00;99.90
48836;DHT22;62581;47.342;7.908;2023-07-02T13:49:58;24.90;99.90
48836;DHT22;62581;47.342;7.908;2023-07-02T13:52:25;25.00;99.90
48836;DHT22;62581;47.342;7.908;2023-07-02T13:54:53;25.00;99.90
48836;DHT22;62581;47.342;7.908;2023-07-02T13:57:20;25.20;99.90
48836;DHT22;62581;47.342;7.908;2023-07-02T13:59:48;25.30;99.90
48836;DHT22;62581;47.342;7.908;2023-07-02T14:02:15;25.20;99.90
48836;DHT22;62581;47.342;7.908;2023-07-02T14:04:42;25.20;99.90
48836;DHT22;62581;47.342;7.908;2023-07-02T14:07:08;25.20;99.90
48836;DHT22;62581;47.342;7.908;2023-07-02T14:09:35;25.50;99.90
48836;DHT22;62581;47.342;7.908;2023-07-02T14:12:03;25.80;99.90
48836;DHT22;62581;47.342;7.908;2023-07-02T14:14:29;25.90;99.90
48836;DHT22;62581;47.342;7.908;2023-07-02T14:16:57;26.10;99.90
48836;DHT22;62581;47.342;7.908;2023-07-02T14:19:24;26.20;99.90
48836;DHT22;62581;47.342;7.908;2023-07-02T14:21:51;25.90;99.90
48836;DHT22;62581;47.342;7.908;2023-07-02T14:24:18;25.90;99.90
48836;DHT22;62581;47.342;7.908;2023-07-02T14:26:44;26.40;99.90
48836;DHT22;62581;47.342;7.908;2023-07-02T14:29:11;25.60;99.90
48836;DHT22;62581;47.342;7.908;2023-07-02T14:31:38;25.80;99.90
48836;DHT22;62581;47.342;7.908;2023-07-02T14:34:06;26.30;99.90
48836;DHT22;62581;47.342;7.908;2023-07-02T14:36:33;26.80;99.90
48836;DHT22;62581;47.342;7.908;2023-07-02T14:38:59;27.20;99.90
48836;DHT22;62581;47.342;7.908;2023-07-02T14:41:26;27.60;99.90
48836;DHT22;62581;47.342;7.908;2023-07-02T14:43:53;29.70;98.20
48836;DHT22;62581;47.342;7.908;2023-07-02T14:46:19;31.70;95.30
48836;DHT22;62581;47.342;7.908;2023-07-02T14:48:47;33.70;92.90
48836;DHT22;62581;47.342;7.908;2023-07-02T14:51:15;34.80;90.00
48836;DHT22;62581;47.342;7.908;2023-07-02T14:53:42;34.50;85.50
48836;DHT22;62581;47.342;7.908;2023-07-02T14:56:09;33.50;85.80
48836;DHT22;62581;47.342;7.908;2023-07-02T14:58:35;31.70;89.70
48836;DHT22;62581;47.342;7.908;2023-07-02T15:01:02;30.90;90.80
48836;DHT22;62581;47.342;7.908;2023-07-02T15:03:29;30.30;91.20
48836;DHT22;62581;47.342;7.908;2023-07-02T15:06:04;29.80;92.00
48836;DHT22;62581;47.342;7.908;2023-07-02T15:08:33;29.40;92.00
48836;DHT22;62581;47.342;7.908;2023-07-02T15:10:59;29.10;92.60
48836;DHT22;62581;47.342;7.908;2023-07-02T15:13:26;28.20;93.40
48836;DHT22;62581;47.342;7.908;2023-07-02T15:15:53;28.00;93.70
48836;DHT22;62581;47.342;7.908;2023-07-02T15:18:20;27.40;94.40
48836;DHT22;62581;47.342;7.908;2023-07-02T15:20:48;26.90;95.50
48836;DHT22;62581;47.342;7.908;2023-07-02T15:23:15;26.30;96.60
48836;DHT22;62581;47.342;7.908;2023-07-02T15:25:43;25.90;97.50
48836;DHT22;62581;47.342;7.908;2023-07-02T15:28:16;25.80;98.00
48836;DHT22;62581;47.342;7.908;2023-07-02T15:30:43;25.60;98.30